createdAt,value
2023-05-20T00:01:34.452Z,96.30
2023-05-20T00:04:02.285Z,95.95
2023-05-20T00:06:30.687Z,95.41
2023-05-20T00:08:59.823Z,95.96
2023-05-20T00:11:27.892Z,96.32
2023-05-20T00:13:55.647Z,96.95
2023-05-20T00:16:23.729Z,96.91
2023-05-20T00:18:51.523Z,96.94
2023-05-20T00:21:19.575Z,96.56
2023-05-20T00:23:47.308Z,96.47
2023-05-20T00:26:15.584Z,96.09
2023-05-20T00:28:44.525Z,96.35
2023-05-20T00:31:12.657Z,96.71
2023-05-20T00:33:40.392Z,97.26
2023-05-20T00:36:08.826Z,98.00
2023-05-20T00:38:36.562Z,98.57
2023-05-20T00:41:04.614Z,98.48
2023-05-20T00:43:32.399Z,98.20
2023-05-20T00:46:01.948Z,98.20
2023-05-20T00:48:43.303Z,98.32
2023-05-20T00:51:13.521Z,98.73
2023-05-20T00:53:42.696Z,99.08
2023-05-20T00:56:10.881Z,98.63
2023-05-20T00:58:41.452Z,98.83
2023-05-20T01:01:09.515Z,99.04
2023-05-20T01:03:37.377Z,99.17
2023-05-20T01:06:05.499Z,99.47
2023-05-20T01:08:34.197Z,99.70
2023-05-20T01:11:09.259Z,100.00
2023-05-20T01:13:58.145Z,100.00
2023-05-20T01:16:26.513Z,100.00
2023-05-20T01:18:58.067Z,100.00
2023-05-20T01:21:30.676Z,100.00
2023-05-20T01:23:58.461Z,100.00
2023-05-20T01:26:27.272Z,100.00
2023-05-20T01:28:58.151Z,100.00
2023-05-20T01:31:31.764Z,100.00
2023-05-20T01:34:00.733Z,100.00
2023-05-20T01:36:31.475Z,100.00
2023-05-20T01:39:00.913Z,100.00
2023-05-20T01:41:30.883Z,100.00
2023-05-20T01:43:59.442Z,100.00
2023-05-20T01:46:27.461Z,100.00
2023-05-20T01:48:55.220Z,99.61
2023-05-20T01:51:24.460Z,99.49
2023-05-20T01:53:52.177Z,99.07
2023-05-20T01:56:20.160Z,98.51
2023-05-20T01:58:48.052Z,97.69
2023-05-20T02:01:16.157Z,97.64
2023-05-20T02:03:44.657Z,98.00
2023-05-20T02:06:12.727Z,98.40
2023-05-20T02:08:40.549Z,98.46
2023-05-20T02:11:08.578Z,98.59
2023-05-20T02:13:37.803Z,98.68
2023-05-20T02:16:06.752Z,98.60
2023-05-20T02:18:35.779Z,98.55
2023-05-20T02:21:04.682Z,98.57
2023-05-20T02:23:32.796Z,99.09
2023-05-20T02:26:01.909Z,98.96
2023-05-20T02:28:29.633Z,98.23
2023-05-20T02:30:57.690Z,98.24
2023-05-20T02:33:28.026Z,98.57
2023-05-20T02:35:56.102Z,98.55
2023-05-20T02:38:24.120Z,99.06
2023-05-20T02:40:52.046Z,99.45
2023-05-20T02:43:19.803Z,98.74
2023-05-20T02:45:48.141Z,98.67
2023-05-20T02:48:16.392Z,98.55
2023-05-20T02:50:44.692Z,98.73
2023-05-20T02:53:12.594Z,97.79
2023-05-20T02:55:41.594Z,96.72
2023-05-20T02:58:09.334Z,96.56
2023-05-20T03:00:41.049Z,96.24
2023-05-20T03:03:14.121Z,96.71
2023-05-20T03:05:45.986Z,96.37
2023-05-20T03:08:13.734Z,95.95
2023-05-20T03:10:41.760Z,95.99
2023-05-20T03:13:11.415Z,95.71
2023-05-20T03:15:39.904Z,95.58
2023-05-20T03:18:11.045Z,95.29
2023-05-20T03:20:40.155Z,94.99
2023-05-20T03:23:08.657Z,94.68
2023-05-20T03:25:39.098Z,94.21
2023-05-20T03:28:06.985Z,93.47
2023-05-20T03:30:37.858Z,93.84
2023-05-20T03:33:06.123Z,93.54
2023-05-20T03:35:34.795Z,93.44
2023-05-20T03:38:03.029Z,92.67
2023-05-20T03:40:31.898Z,92.30
2023-05-20T03:42:59.684Z,91.08
2023-05-20T03:45:27.739Z,89.90
2023-05-20T03:48:03.759Z,89.06
2023-05-20T03:50:34.275Z,88.15
2023-05-20T03:53:02.434Z,88.08
2023-05-20T03:55:37.267Z,87.92
2023-05-20T03:58:05.286Z,87.73
2023-05-20T04:00:34.453Z,87.29
2023-05-20T04:03:02.881Z,86.95
2023-05-20T04:05:31.722Z,87.39
2023-05-20T04:08:01.215Z,87.34
2023-05-20T04:10:29.297Z,87.42
2023-05-20T04:12:57.012Z,86.81
2023-05-20T04:15:25.337Z,86.10
2023-05-20T04:17:56.885Z,85.94
2023-05-20T04:20:25.596Z,84.84
2023-05-20T04:22:56.251Z,84.39
2023-05-20T04:25:24.458Z,84.43
2023-05-20T04:27:54.485Z,83.26
2023-05-20T04:30:22.578Z,83.01
2023-05-20T04:32:51.524Z,82.53
2023-05-20T04:35:19.729Z,82.61
2023-05-20T04:37:49.670Z,82.76
2023-05-20T04:40:18.790Z,82.22
2023-05-20T04:42:47.428Z,81.70
2023-05-20T04:45:16.548Z,81.01
2023-05-20T04:47:44.470Z,80.13
2023-05-20T04:50:13.736Z,78.89
2023-05-20T04:52:43.821Z,77.57
2023-05-20T04:55:13.501Z,76.89
2023-05-20T04:57:44.003Z,77.54
2023-05-20T05:00:13.425Z,77.22
2023-05-20T05:02:42.546Z,76.76
2023-05-20T05:05:10.733Z,76.69
2023-05-20T05:07:39.592Z,76.02
2023-05-20T05:10:08.119Z,75.10
2023-05-20T05:12:35.912Z,75.41
2023-05-20T05:15:05.828Z,74.98
2023-05-20T05:17:33.649Z,73.74
2023-05-20T05:20:02.276Z,72.30
2023-05-20T05:22:33.100Z,72.25
2023-05-20T05:25:01.118Z,70.49
2023-05-20T05:27:28.910Z,69.51
2023-05-20T05:29:56.887Z,69.31
2023-05-20T05:32:24.799Z,67.56
2023-05-20T05:34:53.057Z,66.04
2023-05-20T05:37:21.308Z,64.84
2023-05-20T05:39:49.386Z,65.33
2023-05-20T05:42:17.264Z,64.87
2023-05-20T05:44:45.663Z,63.61
2023-05-20T05:47:13.743Z,61.83
2023-05-20T05:49:41.925Z,61.08
2023-05-20T05:52:09.994Z,60.56
2023-05-20T05:54:38.076Z,59.63
2023-05-20T05:57:07.797Z,58.30
2023-05-20T05:59:36.643Z,56.88
2023-05-20T06:02:04.687Z,56.06
2023-05-20T06:04:32.871Z,55.17
2023-05-20T06:07:00.699Z,54.82
2023-05-20T06:09:28.856Z,53.40
2023-05-20T06:11:56.881Z,52.41
2023-05-20T06:14:24.897Z,51.70
2023-05-20T06:16:52.684Z,51.67
2023-05-20T06:19:21.308Z,50.35
2023-05-20T06:21:49.102Z,49.30
2023-05-20T06:24:17.079Z,48.05
2023-05-20T06:26:46.159Z,47.00
2023-05-20T06:29:14.272Z,47.23
2023-05-20T06:31:42.081Z,46.18
2023-05-20T06:34:10.131Z,46.06
2023-05-20T06:36:37.961Z,45.94
2023-05-20T06:39:11.433Z,45.88
2023-05-20T06:41:40.661Z,44.93
2023-05-20T06:44:11.437Z,44.40
2023-05-20T06:46:59.773Z,44.30
2023-05-20T06:49:28.808Z,43.79
2023-05-20T06:51:56.601Z,43.68
2023-05-20T06:54:25.895Z,42.30
2023-05-20T06:56:55.747Z,41.71
2023-05-20T06:59:24.427Z,39.66
2023-05-20T07:01:52.295Z,38.75
2023-05-20T07:04:20.545Z,37.25
2023-05-20T07:06:48.894Z,36.70
2023-05-20T07:09:17.157Z,37.06
2023-05-20T07:11:46.636Z,35.93
2023-05-20T07:14:14.642Z,34.22
2023-05-20T07:16:42.490Z,32.06
2023-05-20T07:19:10.822Z,30.62
2023-05-20T07:21:38.693Z,29.64
2023-05-20T07:24:24.709Z,27.92
2023-05-20T07:26:52.546Z,27.12
2023-05-20T07:29:20.582Z,27.33
2023-05-20T07:31:48.279Z,26.63
2023-05-20T07:34:17.519Z,25.45
2023-05-20T07:36:45.256Z,25.45
2023-05-20T07:39:15.235Z,25.40
2023-05-20T07:41:43.790Z,24.50
2023-05-20T07:44:13.293Z,24.43
2023-05-20T07:46:45.018Z,24.96
2023-05-20T07:49:13.468Z,24.73
2023-05-20T07:51:41.812Z,23.67
2023-05-20T07:54:09.937Z,23.55
2023-05-20T07:56:38.170Z,23.27
2023-05-20T07:59:07.350Z,23.61
2023-05-20T08:01:42.708Z,22.98
2023-05-20T08:04:12.313Z,22.43
2023-05-20T08:06:41.336Z,22.30
2023-05-20T08:09:13.175Z,21.15
2023-05-20T08:11:47.531Z,21.10
2023-05-20T08:14:16.339Z,21.30
2023-05-20T08:16:48.240Z,21.14
2023-05-20T08:19:16.612Z,21.88
2023-05-20T08:21:47.626Z,21.57
2023-05-20T08:24:16.084Z,21.63
2023-05-20T08:26:44.238Z,21.82
2023-05-20T08:29:12.437Z,22.12
2023-05-20T08:31:40.310Z,21.36
2023-05-20T08:34:08.543Z,21.32
2023-05-20T08:36:36.300Z,21.73
2023-05-20T08:39:05.786Z,22.24
2023-05-20T08:41:33.631Z,23.28
2023-05-20T08:44:03.078Z,22.66
2023-05-20T08:46:34.464Z,22.77
2023-05-20T08:49:03.127Z,22.35
2023-05-20T08:51:33.373Z,21.81
2023-05-20T08:54:01.340Z,21.85
2023-05-20T08:56:30.936Z,21.85
2023-05-20T08:58:59.261Z,22.16
2023-05-20T09:01:27.027Z,22.98
2023-05-20T09:03:55.155Z,23.58
2023-05-20T09:06:24.171Z,23.41
2023-05-20T09:08:52.834Z,22.87
2023-05-20T09:11:23.133Z,22.90
2023-05-20T09:13:51.649Z,22.81
2023-05-20T09:16:19.673Z,22.98
2023-05-20T09:18:47.979Z,22.49
2023-05-20T09:21:15.819Z,22.18
2023-05-20T09:23:49.337Z,22.32
2023-05-20T09:26:19.126Z,22.44
2023-05-20T09:28:47.495Z,22.87
2023-05-20T09:31:15.683Z,23.29
2023-05-20T09:33:43.985Z,23.07
2023-05-20T09:36:14.657Z,23.11
2023-05-20T09:38:45.569Z,24.61
2023-05-20T09:41:15.525Z,25.03
2023-05-20T09:43:46.998Z,25.20
2023-05-20T09:46:15.532Z,25.19
2023-05-20T09:48:44.366Z,27.09
2023-05-20T09:51:13.448Z,27.68
2023-05-20T09:53:43.139Z,28.59
2023-05-20T09:56:11.522Z,28.88
2023-05-20T09:58:40.479Z,28.25
2023-05-20T10:01:08.461Z,28.98
2023-05-20T10:03:36.638Z,28.22
2023-05-20T10:06:10.726Z,28.71
2023-05-20T10:09:11.609Z,29.36
2023-05-20T10:12:07.727Z,30.08
2023-05-20T10:15:10.269Z,30.78
2023-05-20T10:17:50.574Z,31.74
2023-05-20T10:20:18.876Z,31.43
2023-05-20T10:22:59.098Z,31.95
2023-05-20T10:25:28.562Z,32.86
2023-05-20T10:28:08.516Z,33.27
2023-05-20T10:30:37.338Z,34.05
2023-05-20T10:33:07.237Z,34.91
2023-05-20T10:35:35.724Z,35.13
2023-05-20T10:38:12.026Z,35.53
2023-05-20T10:40:40.894Z,35.85
2023-05-20T10:43:13.391Z,36.49
2023-05-20T10:45:52.020Z,36.50
2023-05-20T10:48:32.890Z,36.89
2023-05-20T10:51:05.933Z,36.41
2023-05-20T10:53:42.132Z,36.88
2023-05-20T10:56:23.800Z,36.94
2023-05-20T10:58:53.479Z,37.02
2023-05-20T11:01:26.791Z,37.20
2023-05-20T11:03:57.325Z,37.29
2023-05-20T11:06:30.503Z,37.45
2023-05-20T11:09:07.352Z,36.61
2023-05-20T11:11:35.521Z,36.84
2023-05-20T11:14:03.330Z,37.01
2023-05-20T11:16:31.575Z,37.48
2023-05-20T11:18:59.446Z,37.51
2023-05-20T11:21:27.572Z,37.12
2023-05-20T11:23:55.630Z,37.03
2023-05-20T11:26:23.676Z,37.26
2023-05-20T11:28:51.934Z,36.78
2023-05-20T11:31:20.132Z,36.52
2023-05-20T11:33:47.797Z,36.53
2023-05-20T11:36:27.024Z,37.02
2023-05-20T11:38:59.379Z,36.90
2023-05-20T11:41:28.114Z,36.75
2023-05-20T11:44:01.950Z,36.70
2023-05-20T11:46:29.939Z,36.38
2023-05-20T11:48:58.601Z,36.54
2023-05-20T11:51:30.531Z,36.46
2023-05-20T11:54:03.243Z,36.71
2023-05-20T11:56:33.443Z,37.55
2023-05-20T11:59:01.993Z,37.01
2023-05-20T12:01:38.364Z,36.80
2023-05-20T12:04:07.010Z,36.98
2023-05-20T12:06:37.197Z,37.56
2023-05-20T12:09:07.405Z,37.96
2023-05-20T12:11:37.373Z,39.19
2023-05-20T12:14:05.415Z,39.58
2023-05-20T12:16:35.044Z,40.15
2023-05-20T12:19:03.195Z,40.50
2023-05-20T12:21:32.092Z,40.67
2023-05-20T12:24:01.180Z,39.67
2023-05-20T12:26:30.350Z,39.69
2023-05-20T12:28:58.164Z,39.79
2023-05-20T12:31:26.569Z,39.66
2023-05-20T12:33:54.439Z,39.21
2023-05-20T12:36:22.440Z,38.91
2023-05-20T12:38:50.240Z,39.19
2023-05-20T12:41:18.197Z,38.78
2023-05-20T12:43:45.864Z,38.19
2023-05-20T12:46:13.924Z,37.70
2023-05-20T12:48:42.662Z,37.79
2023-05-20T12:51:10.693Z,37.25
2023-05-20T12:53:38.443Z,38.03
2023-05-20T12:56:07.912Z,37.70
2023-05-20T12:58:35.820Z,38.00
2023-05-20T13:01:03.868Z,38.15
2023-05-20T13:03:31.602Z,37.61
2023-05-20T13:05:59.719Z,37.49
2023-05-20T13:08:28.727Z,37.87
2023-05-20T13:10:56.905Z,37.68
2023-05-20T13:13:25.061Z,37.39
2023-05-20T13:15:54.874Z,37.57
2023-05-20T13:18:22.710Z,37.56
2023-05-20T13:20:50.681Z,37.10
2023-05-20T13:23:18.472Z,37.28
2023-05-20T13:25:46.479Z,37.33
2023-05-20T13:28:16.856Z,36.96
2023-05-20T13:30:45.137Z,37.07
2023-05-20T13:33:13.032Z,37.52
2023-05-20T13:35:41.099Z,37.73
2023-05-20T13:38:08.795Z,38.26
2023-05-20T13:40:36.988Z,38.75
2023-05-20T13:43:04.697Z,38.25
2023-05-20T13:45:32.746Z,38.59
2023-05-20T13:48:00.578Z,38.84
2023-05-20T13:50:28.556Z,39.07
2023-05-20T13:52:56.264Z,39.33
2023-05-20T13:55:24.990Z,39.53
2023-05-20T13:57:54.341Z,39.73
2023-05-20T14:00:22.552Z,39.14
2023-05-20T14:02:50.542Z,39.62
2023-05-20T14:05:18.981Z,39.53
2023-05-20T14:07:46.733Z,40.18
2023-05-20T14:10:15.018Z,40.17
2023-05-20T14:12:47.938Z,40.63
2023-05-20T14:15:16.241Z,40.57
2023-05-20T14:17:44.095Z,40.61
2023-05-20T14:20:12.387Z,40.80
2023-05-20T14:22:40.102Z,40.94
2023-05-20T14:25:08.390Z,40.79
2023-05-20T14:27:36.374Z,40.80
2023-05-20T14:30:04.951Z,40.38
2023-05-20T14:32:32.748Z,40.44
2023-05-20T14:35:00.944Z,40.17
2023-05-20T14:37:28.904Z,40.04
2023-05-20T14:39:57.192Z,40.05
2023-05-20T14:42:25.239Z,40.32
2023-05-20T14:44:53.207Z,40.24
2023-05-20T14:47:22.330Z,40.80
2023-05-20T14:49:50.844Z,40.89
2023-05-20T14:52:19.121Z,41.13
2023-05-20T14:54:47.367Z,40.98
2023-05-20T14:57:16.147Z,40.98
2023-05-20T14:59:44.558Z,40.86
2023-05-20T15:02:15.431Z,41.25
2023-05-20T15:04:46.659Z,41.58
2023-05-20T15:07:15.688Z,41.40
2023-05-20T15:09:44.033Z,40.57
2023-05-20T15:12:11.976Z,40.88
2023-05-20T15:14:40.276Z,40.78
2023-05-20T15:17:08.476Z,40.66
2023-05-20T15:19:39.690Z,40.67
2023-05-20T15:22:09.039Z,40.52
2023-05-20T15:24:37.012Z,40.64
2023-05-20T15:27:05.103Z,40.32
2023-05-20T15:29:33.247Z,40.33
2023-05-20T15:32:01.177Z,40.25
2023-05-20T15:34:29.184Z,40.40
2023-05-20T15:36:56.951Z,40.36
2023-05-20T15:39:26.339Z,40.68
2023-05-20T15:41:54.233Z,40.49
2023-05-20T15:44:22.218Z,40.64
2023-05-20T15:46:49.990Z,41.04
2023-05-20T15:49:17.951Z,41.14
2023-05-20T15:51:52.252Z,41.28
2023-05-20T15:54:27.823Z,41.16
2023-05-20T15:56:55.762Z,41.18
2023-05-20T15:59:23.869Z,41.28
2023-05-20T16:01:51.663Z,41.48
2023-05-20T16:04:20.460Z,41.32
2023-05-20T16:06:48.498Z,41.40
2023-05-20T16:09:16.561Z,41.47
2023-05-20T16:11:44.298Z,42.03
2023-05-20T16:14:12.397Z,42.09
2023-05-20T16:16:40.237Z,41.75
2023-05-20T16:19:08.366Z,41.90
2023-05-20T16:21:36.299Z,41.61
2023-05-20T16:24:04.652Z,41.82
2023-05-20T16:26:32.482Z,42.30
2023-05-20T16:29:00.574Z,42.91
2023-05-20T16:31:28.429Z,43.01
2023-05-20T16:33:57.460Z,43.31
2023-05-20T16:36:25.863Z,43.34
2023-05-20T16:38:54.059Z,43.58
2023-05-20T16:41:22.906Z,43.79
2023-05-20T16:43:51.044Z,43.61
2023-05-20T16:46:18.888Z,43.76
2023-05-20T16:48:47.037Z,43.52
2023-05-20T16:51:14.751Z,43.58
2023-05-20T16:53:42.740Z,43.51
2023-05-20T16:56:10.491Z,43.66
2023-05-20T16:58:38.484Z,43.59
2023-05-20T17:01:06.848Z,43.51
2023-05-20T17:03:36.119Z,43.50
2023-05-20T17:06:04.009Z,43.80
2023-05-20T17:08:31.961Z,43.95
2023-05-20T17:11:00.527Z,43.70
2023-05-20T17:13:28.497Z,43.73
2023-05-20T17:15:56.683Z,43.71
2023-05-20T17:18:24.685Z,43.77
2023-05-20T17:20:52.456Z,43.66
2023-05-20T17:23:20.610Z,44.18
2023-05-20T17:25:48.366Z,44.01
2023-05-20T17:28:16.484Z,43.75
2023-05-20T17:30:44.213Z,44.22
2023-05-20T17:33:12.411Z,43.86
2023-05-20T17:35:40.203Z,43.90
2023-05-20T17:38:08.248Z,44.04
2023-05-20T17:40:36.589Z,44.29
2023-05-20T17:43:04.843Z,44.44
2023-05-20T17:45:32.542Z,44.68
2023-05-20T17:48:00.917Z,45.13
2023-05-20T17:50:28.620Z,44.87
2023-05-20T17:52:56.636Z,45.26
2023-05-20T17:55:24.403Z,45.57
2023-05-20T17:57:52.376Z,45.92
2023-05-20T18:00:21.612Z,46.07
2023-05-20T18:02:50.022Z,46.28
2023-05-20T18:05:18.290Z,46.78
2023-05-20T18:07:46.342Z,47.27
2023-05-20T18:10:14.495Z,47.67
2023-05-20T18:12:43.068Z,47.70
2023-05-20T18:15:11.215Z,48.07
2023-05-20T18:17:40.603Z,48.30
2023-05-20T18:20:09.806Z,48.71
2023-05-20T18:22:37.970Z,49.29
2023-05-20T18:25:06.473Z,49.68
2023-05-20T18:27:34.426Z,49.83
2023-05-20T18:30:02.186Z,50.24
2023-05-20T18:32:30.187Z,50.39
2023-05-20T18:34:58.342Z,50.99
2023-05-20T18:37:27.870Z,51.19
2023-05-20T18:39:58.068Z,51.56
2023-05-20T18:42:26.542Z,52.17
2023-05-20T18:44:54.678Z,52.67
2023-05-20T18:47:22.804Z,53.26
2023-05-20T18:49:50.589Z,53.97
2023-05-20T18:52:18.644Z,54.43
2023-05-20T18:54:46.386Z,54.57
2023-05-20T18:57:14.853Z,54.86
2023-05-20T18:59:42.557Z,55.18
2023-05-20T19:02:10.557Z,55.61
2023-05-20T19:04:38.835Z,55.78
2023-05-20T19:07:07.029Z,56.01
2023-05-20T19:09:34.740Z,56.53
2023-05-20T19:12:02.720Z,57.54
2023-05-20T19:14:30.711Z,57.66
2023-05-20T19:17:00.092Z,57.86
2023-05-20T19:19:28.209Z,58.25
2023-05-20T19:21:56.399Z,58.87
2023-05-20T19:24:24.141Z,59.14
2023-05-20T19:26:52.240Z,59.74
2023-05-20T19:29:19.964Z,60.23
2023-05-20T19:31:47.952Z,61.29
2023-05-20T19:34:15.774Z,62.10
2023-05-20T19:36:44.227Z,62.76
2023-05-20T19:39:12.264Z,63.74
2023-05-20T19:41:40.383Z,64.67
2023-05-20T19:44:11.832Z,65.01
2023-05-20T19:46:40.982Z,64.91
2023-05-20T19:49:08.743Z,64.88
2023-05-20T19:51:36.950Z,65.16
2023-05-20T19:54:04.925Z,65.42
2023-05-20T19:56:33.011Z,65.74
2023-05-20T19:59:01.780Z,65.63
2023-05-20T20:01:30.159Z,65.75
2023-05-20T20:03:57.887Z,65.79
2023-05-20T20:06:26.101Z,65.73
2023-05-20T20:08:53.854Z,65.76
2023-05-20T20:11:23.777Z,65.88
2023-05-20T20:13:51.663Z,66.24
2023-05-20T20:16:19.753Z,66.44
2023-05-20T20:18:47.570Z,66.92
2023-05-20T20:21:15.746Z,67.13
2023-05-20T20:23:43.593Z,67.73
2023-05-20T20:26:13.801Z,68.28
2023-05-20T20:28:41.670Z,68.57
2023-05-20T20:31:09.744Z,69.07
2023-05-20T20:33:37.550Z,69.08
2023-05-20T20:36:05.822Z,68.90
2023-05-20T20:38:33.601Z,68.71
2023-05-20T20:41:03.865Z,68.45
2023-05-20T20:43:34.689Z,68.33
2023-05-20T20:46:02.789Z,68.27
2023-05-20T20:48:30.645Z,68.26
2023-05-20T20:50:59.145Z,68.52
2023-05-20T20:53:26.884Z,68.29
2023-05-20T20:55:57.025Z,68.71
2023-05-20T20:58:24.820Z,68.78
2023-05-20T21:00:53.184Z,68.93
2023-05-20T21:03:24.028Z,69.07
2023-05-20T21:05:52.138Z,69.11
2023-05-20T21:08:22.232Z,69.22
2023-05-20T21:10:50.236Z,69.68
2023-05-20T21:13:18.078Z,69.47
2023-05-20T21:15:46.510Z,69.10
2023-05-20T21:18:18.143Z,69.06
2023-05-20T21:20:46.105Z,69.57
2023-05-20T21:23:13.876Z,69.61
2023-05-20T21:25:41.892Z,69.37
2023-05-20T21:28:09.844Z,69.65
2023-05-20T21:30:38.063Z,69.88
2023-05-20T21:33:05.945Z,69.68
2023-05-20T21:35:34.126Z,69.74
2023-05-20T21:38:02.048Z,70.04
2023-05-20T21:40:30.379Z,70.33
2023-05-20T21:42:58.390Z,70.74
2023-05-20T21:45:26.450Z,71.21
2023-05-20T21:47:54.258Z,71.71
2023-05-20T21:50:22.554Z,71.89
2023-05-20T21:52:50.584Z,72.22
2023-05-20T21:55:23.360Z,73.01
2023-05-20T21:57:51.505Z,73.33
2023-05-20T22:00:20.764Z,73.53
2023-05-20T22:02:50.807Z,73.63
2023-05-20T22:05:19.779Z,74.00
2023-05-20T22:07:48.011Z,74.88
2023-05-20T22:10:17.527Z,75.52
2023-05-20T22:12:45.791Z,76.27
2023-05-20T22:15:14.126Z,76.65
2023-05-20T22:17:42.428Z,77.22
2023-05-20T22:20:11.437Z,78.28
2023-05-20T22:22:39.371Z,79.14
2023-05-20T22:25:08.122Z,80.32
2023-05-20T22:27:35.941Z,80.74
2023-05-20T22:30:06.178Z,81.62
2023-05-20T22:32:34.331Z,82.42
2023-05-20T22:35:02.766Z,82.82
2023-05-20T22:37:30.524Z,82.66
2023-05-20T22:39:58.551Z,82.23
2023-05-20T22:42:26.336Z,82.41
2023-05-20T22:44:54.412Z,82.91
2023-05-20T22:47:22.175Z,83.31
2023-05-20T22:49:50.884Z,83.67
2023-05-20T22:52:18.759Z,84.25
2023-05-20T22:54:46.848Z,84.55
2023-05-20T22:57:14.633Z,84.88
2023-05-20T22:59:42.995Z,85.32
2023-05-20T23:02:11.018Z,85.67
2023-05-20T23:04:39.152Z,85.88
2023-05-20T23:07:07.004Z,85.90
2023-05-20T23:09:35.012Z,86.57
2023-05-20T23:12:02.768Z,87.04
2023-05-20T23:14:30.752Z,87.18
2023-05-20T23:16:58.536Z,87.40
2023-05-20T23:19:26.908Z,87.54
2023-05-20T23:21:54.606Z,87.78
2023-05-20T23:24:22.544Z,88.35
2023-05-20T23:26:50.683Z,88.98
2023-05-20T23:29:18.643Z,89.25
2023-05-20T23:31:47.235Z,89.98
2023-05-20T23:34:16.373Z,90.20
2023-05-20T23:36:45.753Z,90.50
2023-05-20T23:39:14.418Z,90.97
2023-05-20T23:41:43.716Z,91.16
2023-05-20T23:44:11.671Z,90.96
2023-05-20T23:46:39.685Z,90.91
2023-05-20T23:49:10.194Z,91.32
2023-05-20T23:51:37.974Z,91.75
2023-05-20T23:54:06.104Z,91.65
2023-05-20T23:56:33.746Z,91.62
2023-05-20T23:59:01.720Z,92.21
